Rochester, NH (03866)

5:22 PM EDT on July 23, 2016 (GMT -0400)
Trip | | Change Station
Active Advisory: Severe Thunderstorm Watch

Elev 256 ft 43.31 °N, 70.96 °W | Updated 3 minutes ago

Light Rain
Light Rain
78.8 °F
Feels Like 82 °F
N
0.0
Wind Variable Wind from ESE

Today
High -- | Low -- °F
--% Chance of Precip.
Yesterday
High -- | Low -- °F
Precip. -- in
Pressure 29.73 in
Visibility 10.0 miles
Clouds Scattered Clouds 7000 ft
Mostly Cloudy 10000 ft
Mostly Cloudy 12000 ft
Heat Index 82 °F
Dew Point 74 °F
Humidity 86%
Rainfall 0.07 in
Snow Depth Not available.
5:25 AM 8:15 PM
Waning Gibbous, 82% visible
METAR KDAW 232051Z AUTO 06003KT 10SM -RA SCT070 BKN100 BKN120 25/21 A2973 RMK AO2 RAB1956E19B32 SLP065 P0009 60009 T02500206 53001 TSNO
Pressure 29.73 in
Visibility 10.0 miles
Clouds Scattered Clouds 7000 ft
Mostly Cloudy 10000 ft
Mostly Cloudy 12000 ft
Heat Index 82 °F
Dew Point 74 °F
Humidity 86%
Rainfall 0.07 in
Snow Depth Not available.
5:25 AM 8:15 PM
Waning Gibbous, 82% visible
METAR KDAW 232051Z AUTO 06003KT 10SM -RA SCT070 BKN100 BKN120 25/21 A2973 RMK AO2 RAB1956E19B32 SLP065 P0009 60009 T02500206 53001 TSNO

10-Day Weather Forecast

Almanac

Astronomy

Jul. 23, 2016 Rise Set
Actual Time
Civil Twilight
Nautical Twilight
Astronomical Twilight
Moon
Length of Visible Light
Length of Day
Tomorrow will be .
, % of the Moon is Illuminated

Today's Extremes

State Highs State Lows

Community

WunderPhotos

Upload Photos

1,926,929 photos uploaded!

WunderBlog® & News

Nearby

Air Quality

  Air Quality AQ Index Pollutant
Not available.

Snow Depth

Station Depth Elevation

Earthquake Activity

City Distance Mag. Time & Date
Minimum magnitude displayed is 2.5.

Coastal Water Temperatures

Place Temperature

Stations

Nearby Weather Stations

Station Location Temp. Windchill Dew Point Humidity Wind Precip. Elev Updated Type
                   

Watches & Warnings

Severe Thunderstorm Watch
Issued: 5:17 PM EDT Jul. 23, 2016 – National Weather Service

Severe Thunderstorm Watch 411 remains in effect until 800 PM EDT

NH
. New Hampshire counties included are

Belknap Carroll Cheshire
Grafton Hillsborough Merrimack
Rockingham Strafford Sullivan